• Join FlightAware (Why Join?)
  • Login
  • US Flag 
11:09PM EST


 

Airport Tracker/Info


-or-


 

Live Flight TrackerFlight Track Log ✈ N825TD ✈ 30-Jun-2014 ✈ KAPF - KAPF

Flight Track Log - Related Links

Times and Time Zones

All times are in EDT time to prevent confusion due to time zone crossing. See the N825TD flight status page for this flight to view local times or setup timezone preferences in your user account.

Time Position Orientation Groundspeed Altitude Reporting Facility
EDT Latitude Longitude Course Direction KTS MPH feet Rate Location/Type
09:04AM 26.1014 -81.7406 28° Northeast 109 125 2,500  Level Miami Center
09:05AM 26.0928 -81.7128 109° East 116 133 3,400 976 Climbing Miami Center
09:06AM 26.1178 -81.7094 North 93 107 4,500 1,016 Climbing Miami Center
09:07AM 26.1414 -81.7147 349° North 85 98 5,500 829 Climbing Miami Center
09:08AM 26.1524 -81.7756 28° Northeast  Level Estimated
09:08AM 26.1694 -81.7214 348° North 104 120 6,200  Level Miami Center
09:09AM 26.1524 -81.7756 28° Northeast  Level Estimated
09:09AM 26.2094 -81.7333 345° North 139 160 6,000  Level Miami Center
09:10AM 26.2469 -81.7458 343° North 143 165 5,900  Descending Miami Center
09:11AM 26.2856 -81.7506 354° North 132 152 6,000 49 Climbing Miami Center
09:12AM 26.3217 -81.7547 354° North 132 152 6,000  Level Miami Center
09:13AM 26.3608 -81.7611 352° North 132 152 6,000  Level Miami Center
09:14AM 26.3975 -81.7667 352° North 132 152 6,000  Level Miami Center
09:15AM 26.4333 -81.7717 353° North 132 152 6,000  Level Miami Center
09:16AM 26.4725 -81.7775 352° North 132 152 6,000  Level Miami Center
09:17AM 26.5094 -81.7839 351° North 133 153 6,000  Level Miami Center
09:18AM 26.5464 -81.7908 350° North 133 153 6,000  Level Miami Center
09:19AM 26.5858 -81.7953 354° North 130 150 6,000  Level Miami Center
09:20AM 26.6211 -81.8008 352° North 130 150 6,000  Level Miami Center
09:21AM 26.6592 -81.8067 352° North 130 150 6,000  Level Miami Center
09:22AM 26.6942 -81.8114 353° North 130 150 6,000  Level Miami Center
09:23AM 26.7308 -81.8164 353° North 130 150 6,000  Level Miami Center
09:24AM 26.7689 -81.8225 352° North 130 150 6,000  Level Miami Center
09:25AM 26.8039 -81.8281 352° North 130 150 6,000  Level Miami Center
09:26AM 26.8436 -81.8339 353° North 131 151 6,000  Level Miami Center
09:27AM 26.8789 -81.8397 352° North 131 151 6,000  Level Miami Center
09:28AM 26.9172 -81.8461 352° North 130 150 6,000  Level Miami Center
09:29AM 26.9528 -81.8519 352° North 131 151 6,000  Level Miami Center
09:30AM 26.9908 -81.8572 353° North 130 150 6,000  Level Miami Center
09:31AM 27.0172 -81.8436 25° Northeast 131 151 6,000  Level Miami Center
09:32AM 27.0375 -81.8081 57° Northeast 135 155 6,000  Level Miami Center
09:33AM 27.0636 -81.7806 43° Northeast 133 153 6,000  Level Miami Center
09:34AM 27.0961 -81.7472 42° Northeast 132 152 6,000  Level Miami Center
09:35AM 27.1217 -81.7181 45° Northeast 132 152 6,000  Level Miami Center
09:37AM 27.1364 -81.6786 67° East 137 158 6,000  Level Miami Center
09:38AM 27.1561 -81.6422 59° Northeast 137 158 6,000  Level Miami Center
09:39AM 27.1758 -81.6044 60° Northeast 137 158 6,000 -244 Level Miami Center
09:40AM 27.1953 -81.5681 59° Northeast 138 159 5,500 -585 Descending Miami Center
09:41AM 27.2144 -81.5292 61° Northeast 139 160 4,800 -829 Descending Miami Center
09:42AM 27.2386 -81.4822 60° Northeast 142 163 3,800 -871 Descending Miami Center
09:43AM 27.2578 -81.4436 61° Northeast 143 165 3,000 -780 Descending Miami Center
09:44AM 27.2608 -81.3994 86° East 151 174 2,200 -488 Descending Miami Center
09:45AM 27.2614 -81.3531 89° East 146 168 2,000 -98 Descending Miami Center
09:46AM 27.2944 -81.3439 14° North 128 147 2,000 -146 Level Miami Center
09:47AM 27.3314 -81.3425 North 129 148 1,700 -145 Descending Miami Center
09:48AM 27.3617 -81.3428 360° North 106 122 1,700 -98 Level Miami Center
09:49AM 27.3881 -81.3422 North 98 113 1,500 -488 Descending Miami Center
09:50AM 27.4206 -81.3425 360° North 108 124 700 -537 Descending Miami Center
09:51AM 27.4444 -81.3278 29° Northeast 107 123 400 -195 Descending Miami Center
09:52AM 27.4681 -81.3406 334° Northwest 97 112 300 339 Descending Miami Center
09:53AM 27.4600 -81.3672 251° West 105 121 1,100 585 Climbing Miami Center
09:54AM 27.4189 -81.3717 185° South 143 165 1,500 634 Climbing Miami Center
09:55AM 27.3800 -81.3719 180° South 136 157 2,400 823 Climbing Miami Center
09:56AM 27.3492 -81.3778 190° South 134 154 3,200 1,024 Climbing Miami Center
09:57AM 27.3075 -81.3778 180° South 128 147 4,500 1,171 Climbing Miami Center
09:58AM 27.2728 -81.3778 180° South 127 146 5,600 968 Climbing Miami Center
09:59AM 27.2358 -81.3797 183° South 128 147 6,500 878 Climbing Miami Center
10:00AM 27.1961 -81.3808 181° South 139 160 7,400 878 Climbing Miami Center
10:01AM 27.1569 -81.3803 179° South 140 161 8,300 774 Climbing Miami Center
10:02AM 27.1161 -81.3831 183° South 142 163 9,000 341 Climbing Miami Center
10:03AM 27.0667 -81.3847 182° South 174 200 9,000  Level Miami Center
10:04AM 27.0058 -81.3867 182° South 185 213 9,000  Level Miami Center
10:05AM 26.9514 -81.3894 183° South 184 212 9,000  Level Miami Center
10:06AM 26.9022 -81.3914 182° South 181 208 9,000  Level Miami Center
10:07AM 26.8481 -81.3936 182° South 181 208 9,000  Level Miami Center
10:08AM 26.8011 -81.4061 193° South 179 206 9,000 -48 Level Miami Center
10:09AM 26.7544 -81.4333 208° Southwest 177 204 8,900 -290 Descending Miami Center
10:10AM 26.7097 -81.4619 210° Southwest 186 214 8,400 -532 Descending Miami Center
10:11AM 26.6636 -81.4892 208° Southwest 186 214 7,800 -629 Descending Miami Center
10:12AM 26.6136 -81.5175 207° Southwest 187 215 7,100 -585 Descending Miami Center
10:14AM 26.5667 -81.5425 205° Southwest 187 215 6,600 -537 Descending Miami Center
10:15AM 26.5175 -81.5692 206° Southwest 184 212 6,000 -290 Descending Miami Center
10:16AM 26.4747 -81.5942 208° Southwest 175 201 6,000 -290 Level Miami Center
10:17AM 26.4275 -81.6217 208° Southwest 176 203 5,400 -629 Descending Miami Center
10:18AM 26.3833 -81.6464 207° Southwest 177 204 4,700 -823 Descending Miami Center
10:19AM 26.3367 -81.6731 207° Southwest 177 204 3,700 -968 Descending Miami Center
10:20AM 26.2953 -81.6961 207° Southwest 171 197 2,700 -1,113 Descending Miami Center
10:21AM 26.2503 -81.7150 201° Southwest 165 190 1,400 -726 Descending Miami Center
10:22AM 26.2125 -81.7333 204° Southwest 153 176 1,200 -145 Descending Miami Center
10:23AM 26.1753 -81.7553 208° Southwest 144 166 1,100 -145 Descending Miami Center
10:24AM 26.1472 -81.7375 150° Southeast 121 139 900 -387 Descending Miami Center
10:25AM 26.1422 -81.7619 257° West 110 127 300 -339 Descending Miami Center
10:26AM 26.1597 -81.7808 316° Northwest 106 122 200 -97 Descending Miami Center